Time;durP1;ratioP1;P1;durP2;ratioP2;P2;SDS_P1;SDS_P2;PMS_P1;PMS_P2;Temp;Humidity;BMP_temperature;BMP_pressure;BME280_temperature;BME280_humidity;BME280_pressure;Samples;Min_cycle;Max_cycle;Signal;HPM_P1;HPM_P2
2021/12/08 00:02:09;;;;;;;7.40;3.20;;;2.70;99.90;;;;;;5009142;28;20168;-37
2021/12/08 00:04:36;;;;;;;10.60;3.77;;;2.70;99.90;;;;;;5008602;28;20137;-35
2021/12/08 00:07:02;;;;;;;11.77;4.33;;;2.70;99.90;;;;;;4992774;28;20393;-37
2021/12/08 00:09:45;;;;;;;12.90;3.80;;;2.80;99.90;;;;;;5004339;28;20500;-37
2021/12/08 00:14:57;;;;;;;12.57;4.23;;;2.70;99.90;;;;;;4990308;28;20459;-37
2021/12/08 00:17:23;;;;;;;10.03;4.40;;;2.70;99.90;;;;;;4976807;28;20041;-37
2021/12/08 00:19:50;;;;;;;7.87;3.53;;;2.70;99.90;;;;;;5010160;28;20496;-37
2021/12/08 00:22:15;;;;;;;9.37;4.00;;;2.70;99.90;;;;;;5008282;28;20148;-37
2021/12/08 00:24:41;;;;;;;11.70;3.97;;;2.70;99.90;;;;;;5008262;28;20445;-36
2021/12/08 00:27:07;;;;;;;12.30;4.17;;;2.70;99.90;;;;;;4993020;28;20501;-36
2021/12/08 00:29:33;;;;;;;9.27;4.07;;;2.70;99.90;;;;;;5012812;28;20084;-37
2021/12/08 00:31:59;;;;;;;13.00;4.17;;;2.70;99.90;;;;;;5007752;28;20046;-36
2021/12/08 00:34:25;;;;;;;13.90;4.47;;;2.70;99.90;;;;;;5008427;28;20084;-36
2021/12/08 00:36:55;;;;;;;10.07;3.87;;;2.70;99.90;;;;;;4998060;28;20444;-36
2021/12/08 00:39:21;;;;;;;8.57;4.27;;;2.70;99.90;;;;;;5008679;28;20077;-36
2021/12/08 00:41:47;;;;;;;12.23;4.50;;;2.70;99.90;;;;;;5008881;28;20481;-36
2021/12/08 00:44:13;;;;;;;9.40;4.73;;;2.70;99.90;;;;;;5009403;28;20044;-37
2021/12/08 00:46:39;;;;;;;9.90;4.53;;;2.70;99.90;;;;;;4994010;28;20042;-36
2021/12/08 00:49:06;;;;;;;10.53;5.03;;;2.60;99.90;;;;;;5005358;28;20428;-35
2021/12/08 00:51:32;;;;;;;12.33;5.23;;;2.70;99.90;;;;;;5008175;28;20062;-37
2021/12/08 00:53:58;;;;;;;11.63;5.03;;;2.70;99.90;;;;;;5006284;28;20137;-37
2021/12/08 00:56:24;;;;;;;11.73;4.63;;;2.70;99.90;;;;;;4995554;28;20142;-37
2021/12/08 00:58:50;;;;;;;8.77;4.77;;;2.70;99.90;;;;;;5005538;28;20444;-36
2021/12/08 01:01:17;;;;;;;9.60;4.77;;;2.70;99.90;;;;;;5006783;28;20049;-37
2021/12/08 01:03:45;;;;;;;10.50;4.57;;;2.80;99.90;;;;;;5005869;28;20128;-36
2021/12/08 01:06:11;;;;;;;11.73;4.47;;;2.80;99.90;;;;;;4999522;28;20046;-36
2021/12/08 01:08:37;;;;;;;12.30;4.60;;;2.80;99.90;;;;;;5003266;28;20045;-37
2021/12/08 01:11:21;;;;;;;11.33;4.90;;;2.80;99.90;;;;;;5009770;28;20061;-36
2021/12/08 01:13:49;;;;;;;12.20;4.90;;;2.80;99.90;;;;;;5002919;28;20132;-35
2021/12/08 01:16:16;;;;;;;14.10;4.90;;;2.80;99.90;;;;;;4978475;28;20046;-35
2021/12/08 01:18:42;;;;;;;10.30;4.63;;;2.90;99.90;;;;;;4983011;28;20430;-35
2021/12/08 01:21:10;;;;;;;10.67;4.60;;;2.90;99.90;;;;;;4986727;28;20100;-37
2021/12/08 01:23:38;;;;;;;11.63;4.60;;;2.90;99.90;;;;;;4990604;28;20046;-36
2021/12/08 01:26:06;;;;;;;11.20;4.87;;;2.90;99.90;;;;;;4987381;28;20046;-37
2021/12/08 01:28:33;;;;;;;10.20;4.80;;;2.90;99.90;;;;;;4983585;28;20038;-36
2021/12/08 01:31:01;;;;;;;10.73;4.63;;;2.90;99.90;;;;;;4988721;28;20168;-37
2021/12/08 01:33:30;;;;;;;10.70;4.80;;;2.90;99.90;;;;;;4988335;28;20524;-37
2021/12/08 01:35:56;;;;;;;9.83;4.10;;;3.00;99.90;;;;;;4989008;28;20039;-37
2021/12/08 01:38:22;;;;;;;9.67;4.50;;;3.00;99.90;;;;;;4972723;28;20038;-37
2021/12/08 01:40:49;;;;;;;11.33;4.53;;;3.00;99.90;;;;;;4984825;28;20132;-36
2021/12/08 01:43:29;;;;;;;12.53;5.10;;;3.00;99.90;;;;;;4989236;28;20038;-36
2021/12/08 01:46:07;;;;;;;9.90;4.77;;;3.00;99.90;;;;;;4989348;28;20058;-36
2021/12/08 01:48:35;;;;;;;11.13;4.57;;;3.00;99.90;;;;;;4992330;28;20512;-37
2021/12/08 01:51:17;;;;;;;9.03;4.60;;;3.10;99.90;;;;;;5006285;28;20125;-37
2021/12/08 01:53:46;;;;;;;11.37;4.77;;;3.10;99.90;;;;;;4996493;28;20050;-36
2021/12/08 01:56:13;;;;;;;9.40;4.83;;;3.10;99.90;;;;;;4979929;28;20520;-36
2021/12/08 01:58:39;;;;;;;11.43;4.87;;;3.10;99.90;;;;;;5019220;28;20151;-36
2021/12/08 02:01:11;;;;;;;12.83;4.90;;;3.10;99.90;;;;;;4990802;28;20459;-36
2021/12/08 02:03:37;;;;;;;;;;;3.10;99.90;;;;;;4986678;28;20042;-34
2021/12/08 02:06:06;;;;;;;13.80;4.80;;;3.20;99.90;;;;;;4990191;28;20077;-36
2021/12/08 02:08:32;;;;;;;11.57;5.37;;;3.20;99.90;;;;;;4973903;28;20129;-36
2021/12/08 02:10:59;;;;;;;12.80;5.33;;;3.20;99.90;;;;;;4989379;28;20050;-36
2021/12/08 02:13:28;;;;;;;7.77;4.27;;;3.20;99.90;;;;;;5002335;28;20512;-36
2021/12/08 02:15:54;;;;;;;9.97;4.87;;;3.20;99.90;;;;;;4987999;28;20137;-36
2021/12/08 02:18:20;;;;;;;12.07;4.83;;;3.20;99.90;;;;;;4988357;28;20136;-37
2021/12/08 02:20:50;;;;;;;11.23;5.30;;;3.20;99.90;;;;;;5004007;28;20053;-36
2021/12/08 02:23:18;;;;;;;11.43;5.30;;;3.20;99.90;;;;;;5004572;28;20475;-36
2021/12/08 02:25:45;;;;;;;10.57;5.30;;;3.20;99.90;;;;;;5020627;28;20033;-36
2021/12/08 02:28:12;;;;;;;12.77;5.37;;;3.20;99.90;;;;;;4993051;28;20041;-37
2021/12/08 02:30:50;;;;;;;10.30;5.60;;;3.30;99.90;;;;;;5010792;28;20100;-36
2021/12/08 02:47:15;;;;;;;14.00;5.20;;;3.30;99.90;;;;;;4989976;28;20057;-37
2021/12/08 02:49:42;;;;;;;10.17;5.20;;;3.30;99.90;;;;;;5002125;28;20046;-36
2021/12/08 02:52:11;;;;;;;12.53;5.13;;;3.40;99.90;;;;;;5003357;28;20042;-37
2021/12/08 02:54:41;;;;;;;12.33;5.20;;;3.30;99.90;;;;;;5009121;28;20262;-36
2021/12/08 02:57:08;;;;;;;9.10;4.50;;;3.40;99.90;;;;;;4992407;28;20084;-36
2021/12/08 02:59:35;;;;;;;10.10;5.33;;;3.40;99.90;;;;;;5004712;28;20041;-35
2021/12/08 03:02:02;;;;;;;12.47;5.70;;;3.40;99.90;;;;;;5002753;28;20428;-35
2021/12/08 03:04:28;;;;;;;8.37;4.67;;;3.40;99.90;;;;;;5003284;28;20073;-35
2021/12/08 03:06:53;;;;;;;10.60;5.17;;;3.40;99.90;;;;;;4988805;28;20093;-36
2021/12/08 03:09:19;;;;;;;11.20;4.90;;;3.40;99.90;;;;;;5003537;28;20050;-36
2021/12/08 03:11:48;;;;;;;7.27;4.70;;;3.40;99.90;;;;;;5002041;28;20065;-36
2021/12/08 03:14:16;;;;;;;13.70;5.53;;;3.40;99.90;;;;;;5006239;28;20547;-36
2021/12/08 03:16:48;;;;;;;7.50;5.17;;;3.50;99.90;;;;;;4992191;28;20467;-37
2021/12/08 03:19:14;;;;;;;10.07;5.80;;;3.50;99.90;;;;;;5004813;28;20041;-36
2021/12/08 03:21:40;;;;;;;9.93;5.80;;;3.50;99.90;;;;;;5007878;28;20050;-36
2021/12/08 03:24:53;;;;;;;12.77;6.37;;;3.50;99.90;;;;;;5005682;28;20037;-36
2021/12/08 03:29:48;;;;;;;11.80;6.03;;;3.50;99.90;;;;;;5038270;28;20042;-37
2021/12/08 03:32:17;;;;;;;8.23;6.00;;;3.50;99.90;;;;;;5005077;28;20041;-36
2021/12/08 03:34:52;;;;;;;9.37;6.23;;;3.50;99.90;;;;;;5004162;28;20046;-37
2021/12/08 03:37:26;;;;;;;10.63;6.60;;;3.50;99.90;;;;;;4990755;28;20418;-36
2021/12/08 03:39:52;;;;;;;13.73;7.13;;;3.60;99.90;;;;;;5005195;28;20057;-37
2021/12/08 03:42:21;;;;;;;13.57;6.93;;;3.60;99.90;;;;;;5005525;28;20514;-36
2021/12/08 03:44:48;;;;;;;13.60;8.00;;;3.60;99.90;;;;;;5006393;28;20390;-37
2021/12/08 03:47:17;;;;;;;15.37;7.60;;;3.60;99.90;;;;;;4989389;28;20045;-37
2021/12/08 03:49:46;;;;;;;14.37;8.23;;;3.60;99.90;;;;;;5008671;28;20046;-35
2021/12/08 03:52:12;;;;;;;15.17;8.37;;;3.60;99.90;;;;;;5004389;28;20046;-36
2021/12/08 03:54:38;;;;;;;12.13;8.23;;;3.70;99.90;;;;;;5013194;28;20135;-37
2021/12/08 03:57:06;;;;;;;14.03;8.87;;;3.70;99.90;;;;;;4991898;28;20566;-37
2021/12/08 03:59:32;;;;;;;16.47;9.17;;;3.70;99.90;;;;;;5005461;28;20537;-33
2021/12/08 04:01:58;;;;;;;13.97;9.40;;;3.70;99.90;;;;;;5006879;28;20364;-37
2021/12/08 04:04:27;;;;;;;14.73;9.70;;;3.80;99.90;;;;;;5002694;28;20054;-37
2021/12/08 04:06:55;;;;;;;15.33;9.80;;;3.80;99.90;;;;;;4989623;28;20513;-37
2021/12/08 04:09:38;;;;;;;10.93;9.20;;;3.80;99.90;;;;;;5004035;28;20056;-35
2021/12/08 04:12:05;;;;;;;15.73;9.87;;;3.80;99.90;;;;;;5008244;28;20185;-37
2021/12/08 04:14:36;;;;;;;16.67;10.30;;;3.80;99.90;;;;;;5006290;28;20025;-37
2021/12/08 04:17:07;;;;;;;15.98;10.63;;;3.80;99.90;;;;;;4993946;28;20053;-37
2021/12/08 04:19:34;;;;;;;17.30;10.85;;;3.80;99.90;;;;;;5005553;28;20037;-36
2021/12/08 04:22:17;;;;;;;17.63;11.60;;;3.90;99.90;;;;;;5007496;28;20618;-37
2021/12/08 04:24:44;;;;;;;18.30;11.23;;;3.90;99.90;;;;;;4983652;28;20514;-37
2021/12/08 04:27:18;;;;;;;15.10;10.93;;;3.90;99.90;;;;;;4983107;28;20089;-38
2021/12/08 04:29:46;;;;;;;13.93;10.50;;;3.90;99.90;;;;;;4984594;28;20053;-37
2021/12/08 04:32:14;;;;;;;16.27;10.73;;;3.90;99.90;;;;;;4987385;28;20050;-37
2021/12/08 04:34:42;;;;;;;16.40;11.27;;;4.00;99.90;;;;;;5007567;28;20112;-36
2021/12/08 04:37:20;;;;;;;16.50;11.27;;;3.90;99.90;;;;;;4992611;28;20041;-37
2021/12/08 04:40:17;;;;;;;15.23;11.60;;;4.00;99.90;;;;;;5010353;28;20108;-36
2021/12/08 04:45:22;;;;;;;17.17;11.57;;;4.00;99.90;;;;;;4988505;28;20414;-35
2021/12/08 05:07:02;;;;;;;18.63;12.07;;;4.10;99.90;;;;;;4976885;28;20050;-37
2021/12/08 05:09:35;;;;;;;17.33;12.20;;;4.20;99.90;;;;;;5010113;28;20506;-38
2021/12/08 05:12:19;;;;;;;19.57;12.30;;;4.20;99.90;;;;;;5009964;28;20050;-36
2021/12/08 05:15:08;;;;;;;22.53;12.00;;;4.20;99.90;;;;;;4989971;28;20047;-37
2021/12/08 05:17:47;;;;;;;17.40;11.67;;;4.20;99.90;;;;;;5005773;28;20100;-37
2021/12/08 05:20:38;;;;;;;17.97;12.23;;;4.20;99.90;;;;;;4989251;28;20046;-37
2021/12/08 05:23:15;;;;;;;21.52;12.15;;;4.20;99.90;;;;;;4991169;28;20657;-37
2021/12/08 05:25:42;;;;;;;16.80;12.30;;;4.30;99.90;;;;;;4987046;28;20746;-36
2021/12/08 05:28:15;;;;;;;16.57;11.90;;;4.30;99.90;;;;;;4972875;28;20384;-37
2021/12/08 05:30:46;;;;;;;18.47;12.17;;;4.30;99.90;;;;;;4987499;28;20054;-37
2021/12/08 05:33:14;;;;;;;12.57;9.02;;;4.30;99.90;;;;;;4987175;28;20406;-38
2021/12/08 05:35:42;;;;;;;18.47;11.30;;;4.40;99.90;;;;;;4989877;28;20148;-37
2021/12/08 05:38:09;;;;;;;18.47;12.20;;;4.40;99.90;;;;;;5019557;28;20050;-36
2021/12/08 05:40:51;;;;;;;20.50;12.33;;;4.40;99.90;;;;;;4985508;28;20050;-36
2021/12/08 05:43:19;;;;;;;17.00;11.80;;;4.50;99.90;;;;;;4989823;28;20093;-36
2021/12/08 05:45:46;;;;;;;18.50;12.03;;;4.50;99.90;;;;;;4987109;28;20050;-36
2021/12/08 05:48:12;;;;;;;18.40;11.83;;;4.50;99.90;;;;;;4973377;28;20065;-37
2021/12/08 05:51:07;;;;;;;14.47;10.90;;;4.60;99.90;;;;;;4987982;28;20445;-37
2021/12/08 05:53:35;;;;;;;16.37;10.63;;;4.60;99.90;;;;;;4987616;28;20557;-37
2021/12/08 05:56:03;;;;;;;18.63;10.83;;;4.60;99.90;;;;;;4986501;28;20507;-36
2021/12/08 05:58:29;;;;;;;16.60;10.23;;;4.70;99.90;;;;;;4997623;28;20334;-37
2021/12/08 06:00:58;;;;;;;18.03;10.77;;;4.70;99.90;;;;;;5011224;28;20417;-37
2021/12/08 06:03:24;;;;;;;15.90;10.13;;;4.70;99.90;;;;;;4996899;28;20092;-36
2021/12/08 06:05:53;;;;;;;15.80;10.40;;;4.70;99.90;;;;;;5019964;28;20545;-37
2021/12/08 06:08:19;;;;;;;18.17;10.17;;;4.80;99.90;;;;;;4976114;28;20043;-37
2021/12/08 06:10:46;;;;;;;15.30;10.13;;;4.80;99.90;;;;;;4986042;28;20482;-35
2021/12/08 06:13:14;;;;;;;15.20;9.73;;;4.80;99.90;;;;;;4993741;28;20585;-37
2021/12/08 06:15:42;;;;;;;20.00;10.30;;;4.80;99.90;;;;;;4988169;28;20139;-37
2021/12/08 06:18:08;;;;;;;14.77;10.13;;;4.90;99.90;;;;;;4971485;28;20046;-37
2021/12/08 06:20:36;;;;;;;13.60;9.33;;;4.90;99.90;;;;;;4986444;28;20057;-36
2021/12/08 06:23:04;;;;;;;15.17;10.20;;;4.90;99.90;;;;;;4988679;28;20070;-37
2021/12/08 06:25:30;;;;;;;15.43;10.20;;;4.90;99.90;;;;;;4991228;28;20351;-36
2021/12/08 06:27:56;;;;;;;15.33;9.90;;;4.90;99.90;;;;;;4974469;28;20347;-37
2021/12/08 06:30:26;;;;;;;15.00;10.20;;;5.00;99.90;;;;;;4989245;28;20046;-37
2021/12/08 06:32:52;;;;;;;16.50;9.53;;;5.00;99.90;;;;;;4985436;28;20430;-37
2021/12/08 06:35:32;;;;;;;20.27;10.10;;;5.10;99.90;;;;;;4988592;28;20548;-35
2021/12/08 06:37:58;;;;;;;14.77;9.07;;;5.00;99.90;;;;;;4973225;28;20104;-36
2021/12/08 06:40:33;;;;;;;16.53;9.43;;;5.00;99.90;;;;;;4985574;28;20054;-37
2021/12/08 06:43:02;;;;;;;14.40;9.23;;;5.00;99.90;;;;;;4986512;28;20058;-35
2021/12/08 06:45:32;;;;;;;12.67;9.17;;;5.00;99.90;;;;;;5016703;28;20047;-37
2021/12/08 06:48:01;;;;;;;13.90;8.70;;;5.00;99.90;;;;;;4972504;28;20293;-37
2021/12/08 06:50:50;;;;;;;16.37;8.63;;;5.00;99.90;;;;;;4986075;28;20034;-35
2021/12/08 06:53:16;;;;;;;16.97;8.43;;;5.10;99.90;;;;;;4989838;28;20050;-37
2021/12/08 06:55:52;;;;;;;18.97;9.20;;;5.00;99.90;;;;;;4987906;28;20737;-36
2021/12/08 06:58:22;;;;;;;15.47;8.63;;;5.00;99.90;;;;;;4983477;28;20093;-36
2021/12/08 07:01:19;;;;;;;19.70;9.00;;;4.90;99.90;;;;;;5007823;28;20060;-36
2021/12/08 07:09:20;;;;;;;13.73;8.03;;;4.90;99.90;;;;;;5007029;28;20052;-37
2021/12/08 07:11:47;;;;;;;13.20;7.33;;;4.90;99.90;;;;;;5007468;28;20069;-36
2021/12/08 07:14:13;;;;;;;13.57;8.43;;;4.90;99.90;;;;;;5008627;28;20159;-37
2021/12/08 07:16:43;;;;;;;18.73;10.70;;;4.90;99.90;;;;;;4991949;28;20489;-37
2021/12/08 07:19:27;;;;;;;12.03;8.30;;;4.90;99.90;;;;;;5019259;28;20054;-36
2021/12/08 07:21:56;;;;;;;12.60;8.03;;;4.80;99.90;;;;;;5004866;28;20121;-36
2021/12/08 07:24:29;;;;;;;16.13;8.83;;;4.80;99.90;;;;;;5001208;28;20124;-37
2021/12/08 07:27:00;;;;;;;18.53;9.97;;;4.90;99.90;;;;;;5000270;28;20470;-37
2021/12/08 07:29:30;;;;;;;18.92;9.80;;;4.80;99.90;;;;;;4981735;28;20034;-36
2021/12/08 07:32:06;;;;;;;18.37;9.23;;;4.80;99.90;;;;;;4986348;28;20080;-36
2021/12/08 07:34:34;;;;;;;16.57;9.63;;;4.80;99.90;;;;;;5000106;28;20043;-37
2021/12/08 07:37:06;;;;;;;18.93;10.27;;;4.80;99.90;;;;;;4970285;28;20356;-37
2021/12/08 07:39:43;;;;;;;15.47;9.20;;;4.80;99.90;;;;;;4986340;28;20121;-36
2021/12/08 07:42:20;;;;;;;16.67;9.23;;;4.70;99.90;;;;;;4984269;28;20054;-36
2021/12/08 07:44:50;;;;;;;18.50;10.07;;;4.70;99.90;;;;;;4983994;28;20046;-38
2021/12/08 07:47:20;;;;;;;17.17;12.63;;;4.70;99.90;;;;;;4970007;28;20268;-36
2021/12/08 07:49:54;;;;;;;15.17;9.93;;;4.70;99.90;;;;;;4983789;28;20054;-37
2021/12/08 07:52:34;;;;;;;11.03;6.47;;;4.70;99.90;;;;;;4988221;28;20047;-35
2021/12/08 07:55:03;;;;;;;13.10;6.20;;;4.70;99.90;;;;;;4983975;28;20054;-35
2021/12/08 07:57:34;;;;;;;11.50;5.47;;;4.70;99.90;;;;;;4971265;28;20089;-36
2021/12/08 08:00:13;;;;;;;10.68;5.90;;;4.70;99.90;;;;;;5001887;28;20046;-37
2021/12/08 08:02:38;;;;;;;10.60;5.83;;;4.70;99.90;;;;;;4990418;28;20060;-36
2021/12/08 08:05:07;;;;;;;13.30;5.10;;;4.70;99.90;;;;;;4986285;28;20050;-38
2021/12/08 08:07:33;;;;;;;11.13;5.07;;;4.70;99.90;;;;;;4971428;28;20077;-36
2021/12/08 08:10:01;;;;;;;9.17;4.50;;;4.80;99.90;;;;;;4984693;28;20085;-36
2021/12/08 08:12:31;;;;;;;10.23;4.87;;;4.70;99.90;;;;;;4989710;28;20054;-37
2021/12/08 08:15:00;;;;;;;7.07;4.00;;;4.60;99.90;;;;;;4990380;28;20049;-37
2021/12/08 08:17:34;;;;;;;11.10;3.80;;;4.70;99.90;;;;;;4979593;28;20050;-38
2021/12/08 08:20:04;;;;;;;10.53;4.03;;;4.60;99.90;;;;;;4991707;28;20081;-36
2021/12/08 08:22:30;;;;;;;9.20;3.87;;;4.60;99.90;;;;;;4991819;28;20088;-36
2021/12/08 08:24:58;;;;;;;8.23;3.80;;;4.60;99.90;;;;;;4996919;28;20042;-36
2021/12/08 08:27:26;;;;;;;11.03;3.77;;;4.70;99.90;;;;;;4979791;28;20046;-36
2021/12/08 08:29:54;;;;;;;10.40;3.27;;;4.70;99.90;;;;;;4993403;28;20077;-37
2021/12/08 08:32:26;;;;;;;6.57;3.30;;;4.70;99.90;;;;;;4991301;28;20049;-36
2021/12/08 08:34:56;;;;;;;12.03;3.30;;;4.60;99.90;;;;;;4994541;28;20080;-36
2021/12/08 08:37:23;;;;;;;9.87;3.17;;;4.70;99.90;;;;;;4978071;28;20042;-37
2021/12/08 08:39:59;;;;;;;9.70;3.40;;;4.80;99.90;;;;;;4991728;28;20053;-35
2021/12/08 08:42:36;;;;;;;8.07;3.23;;;4.70;99.90;;;;;;4991008;28;20109;-37
2021/12/08 08:45:39;;;;;;;8.00;3.30;;;4.70;99.90;;;;;;4990311;28;20061;-36
2021/12/08 08:48:15;;;;;;;7.73;2.80;;;4.70;99.90;;;;;;4983831;28;20057;-37
2021/12/08 08:51:18;;;;;;;10.07;3.40;;;4.70;99.90;;;;;;5013485;28;20073;-36
2021/12/08 08:53:50;;;;;;;9.27;3.90;;;4.70;99.90;;;;;;4990601;28;20141;-37
2021/12/08 08:56:22;;;;;;;10.67;3.43;;;4.70;99.90;;;;;;4986508;28;20282;-37
2021/12/08 08:58:52;;;;;;;10.07;4.23;;;4.70;99.90;;;;;;4994937;28;20041;-36
2021/12/08 09:01:28;;;;;;;14.13;5.37;;;4.70;99.90;;;;;;4994821;28;20355;-37
2021/12/08 09:03:58;;;;;;;10.70;3.50;;;4.70;99.90;;;;;;4992550;28;20057;-37
2021/12/08 09:06:31;;;;;;;8.67;3.00;;;4.70;99.90;;;;;;4980905;28;20496;-37
2021/12/08 09:09:02;;;;;;;7.70;2.93;;;4.70;99.90;;;;;;4990961;28;20047;-37
2021/12/08 09:11:33;;;;;;;9.80;2.73;;;4.70;99.90;;;;;;5011327;28;20048;-37
2021/12/08 09:14:10;;;;;;;11.18;2.42;;;4.80;99.90;;;;;;5013582;28;20054;-37
2021/12/08 09:16:42;;;;;;;7.57;2.60;;;4.80;99.90;;;;;;4999814;28;20098;-37
2021/12/08 09:19:13;;;;;;;10.10;3.30;;;4.80;99.90;;;;;;4998027;28;20046;-37
2021/12/08 09:21:58;;;;;;;16.23;4.47;;;4.80;99.90;;;;;;4993904;28;20421;-37
2021/12/08 09:24:54;;;;;;;15.53;4.43;;;4.80;99.90;;;;;;5032111;28;20513;-37
2021/12/08 09:27:33;;;;;;;13.27;4.30;;;4.80;99.90;;;;;;4980458;28;20423;-37
2021/12/08 09:30:15;;;;;;;9.73;3.10;;;4.80;99.90;;;;;;4995197;28;20053;-36
2021/12/08 09:32:48;;;;;;;11.87;2.83;;;4.90;99.90;;;;;;4993117;28;20085;-37
2021/12/08 09:35:24;;;;;;;13.50;3.63;;;4.90;99.90;;;;;;5031792;28;20042;-37
2021/12/08 09:37:55;;;;;;;9.50;3.80;;;4.90;99.90;;;;;;4981266;28;20088;-37
2021/12/08 09:40:26;;;;;;;11.68;3.67;;;4.80;99.90;;;;;;4997430;28;20056;-38
2021/12/08 09:42:54;;;;;;;;;;;4.90;99.90;;;;;;4997258;28;20108;-37
2021/12/08 09:45:55;;;;;;;11.23;3.07;;;4.90;99.90;;;;;;4997029;28;20036;-37
2021/12/08 09:48:26;;;;;;;6.95;2.67;;;4.90;99.90;;;;;;4971840;28;20519;-38
2021/12/08 09:50:54;;;;;;;11.85;3.55;;;4.90;99.90;;;;;;4997541;28;20089;-37
2021/12/08 09:53:20;;;;;;;13.17;4.37;;;5.00;99.90;;;;;;4996713;28;20041;-37
2021/12/08 09:55:46;;;;;;;11.73;4.07;;;5.10;99.90;;;;;;4994286;28;20053;-36
2021/12/08 09:58:11;;;;;;;9.80;3.83;;;5.10;99.90;;;;;;4978851;28;20042;-37
2021/12/08 10:00:42;;;;;;;11.63;3.80;;;5.20;99.90;;;;;;4994725;28;20497;-37
2021/12/08 10:03:09;;;;;;;10.63;3.43;;;5.20;99.90;;;;;;4988763;28;20073;-38
2021/12/08 10:05:39;;;;;;;13.80;3.63;;;5.30;99.90;;;;;;4984185;28;20053;-36
2021/12/08 10:08:06;;;;;;;9.70;3.00;;;5.30;99.90;;;;;;4988666;28;20053;-37
2021/12/08 10:10:32;;;;;;;14.13;6.30;;;5.40;99.90;;;;;;5009846;28;20317;-35
2021/12/08 10:12:58;;;;;;;17.80;9.03;;;5.40;99.90;;;;;;5017792;28;20055;-37
2021/12/08 10:15:26;;;;;;;9.07;3.23;;;5.50;99.90;;;;;;5018624;28;20497;-37
2021/12/08 10:17:55;;;;;;;10.63;2.97;;;5.50;99.90;;;;;;4996441;28;20620;-38
2021/12/08 10:20:48;;;;;;;11.20;2.83;;;5.50;99.90;;;;;;5001390;28;20413;-36
2021/12/08 10:23:17;;;;;;;13.53;3.03;;;5.50;99.90;;;;;;4996968;28;20375;-37
2021/12/08 10:25:53;;;;;;;9.73;2.80;;;5.50;99.90;;;;;;4993598;28;20099;-37
2021/12/08 10:28:40;;;;;;;9.17;3.17;;;5.50;99.90;;;;;;4987056;28;20064;-37
2021/12/08 10:31:27;;;;;;;13.83;3.17;;;5.60;99.90;;;;;;5009428;28;20061;-36
2021/12/08 10:34:05;;;;;;;10.63;3.67;;;5.70;99.90;;;;;;5014288;28;20125;-37
2021/12/08 10:36:57;;;;;;;11.13;3.27;;;5.70;99.90;;;;;;5004714;28;20058;-37
2021/12/08 10:39:32;;;;;;;9.73;2.95;;;5.90;99.90;;;;;;5022694;28;20041;-36
2021/12/08 10:42:31;;;;;;;14.13;3.50;;;6.10;99.90;;;;;;5014770;28;20136;-38
2021/12/08 10:45:09;;;;;;;9.57;3.10;;;6.30;99.90;;;;;;5016711;28;20050;-37
2021/12/08 10:47:54;;;;;;;10.73;4.03;;;6.40;99.90;;;;;;5003412;28;20057;-38
2021/12/08 10:56:24;;;;;;;17.10;4.30;;;6.80;99.90;;;;;;5010961;28;20253;-39
2021/12/08 10:58:51;;;;;;;10.97;3.93;;;6.90;99.90;;;;;;5014218;28;20056;-38
2021/12/08 11:01:19;;;;;;;11.33;3.93;;;7.00;99.90;;;;;;5015714;28;20046;-38
2021/12/08 11:03:47;;;;;;;12.87;3.47;;;7.00;99.90;;;;;;5013199;28;20545;-38
2021/12/08 11:06:15;;;;;;;14.40;3.93;;;7.10;99.90;;;;;;5008306;28;20049;-38
2021/12/08 11:08:47;;;;;;;14.80;4.17;;;7.10;99.90;;;;;;4994582;28;20128;-34
2021/12/08 11:11:24;;;;;;;12.77;3.60;;;7.30;99.90;;;;;;4997699;28;20048;-37
2021/12/08 11:13:53;;;;;;;11.80;3.87;;;7.20;99.90;;;;;;4998651;28;20050;-37
2021/12/08 11:16:24;;;;;;;12.50;4.43;;;7.20;99.90;;;;;;4989482;28;20059;-36
2021/12/08 11:19:03;;;;;;;12.20;3.90;;;7.30;99.90;;;;;;4992147;28;20320;-37
2021/12/08 11:21:36;;;;;;;10.40;3.27;;;7.30;99.90;;;;;;4996217;28;20086;-38
2021/12/08 11:24:05;;;;;;;12.10;3.50;;;7.20;99.90;;;;;;5014674;28;20095;-37
2021/12/08 11:26:38;;;;;;;11.27;4.00;;;7.10;99.90;;;;;;5007621;28;20369;-39
2021/12/08 11:29:23;;;;;;;12.40;4.30;;;7.00;99.90;;;;;;5015487;28;20045;-37
2021/12/08 11:31:59;;;;;;;11.03;3.60;;;7.00;99.90;;;;;;5017394;28;20045;-37
2021/12/08 11:34:31;;;;;;;9.87;3.23;;;6.90;99.90;;;;;;5032797;28;20161;-36
2021/12/08 11:37:09;;;;;;;8.77;3.80;;;6.80;99.90;;;;;;5001497;28;20139;-37
2021/12/08 11:39:37;;;;;;;13.23;3.80;;;6.70;99.90;;;;;;5013036;28;20045;-37
2021/12/08 11:42:13;;;;;;;11.70;4.43;;;6.60;99.90;;;;;;5010937;28;20069;-37
2021/12/08 11:44:45;;;;;;;13.83;4.53;;;6.50;99.90;;;;;;5014603;28;20115;-37
2021/12/08 11:47:27;;;;;;;10.57;4.20;;;6.50;99.90;;;;;;5002389;28;20061;-37
2021/12/08 11:49:56;;;;;;;11.90;4.77;;;6.50;99.90;;;;;;4999534;28;20050;-37
2021/12/08 11:52:29;;;;;;;11.50;4.83;;;6.40;99.90;;;;;;4999199;28;20079;-37
2021/12/08 11:55:01;;;;;;;16.07;5.40;;;6.40;99.90;;;;;;5018492;28;20081;-36
2021/12/08 11:57:36;;;;;;;11.17;3.87;;;6.30;99.90;;;;;;5004328;28;20104;-38
2021/12/08 12:00:11;;;;;;;14.83;4.17;;;6.30;99.90;;;;;;5019777;28;20060;-36
2021/12/08 12:02:51;;;;;;;13.33;5.17;;;6.30;99.90;;;;;;5017462;28;20092;-36
2021/12/08 12:05:20;;;;;;;12.23;5.40;;;6.30;99.90;;;;;;5020199;28;20053;-37
2021/12/08 12:07:47;;;;;;;16.43;4.87;;;6.20;99.90;;;;;;5001898;28;20046;-37
2021/12/08 12:10:15;;;;;;;20.13;9.67;;;6.30;99.90;;;;;;5002697;28;20046;-37
2021/12/08 12:12:42;;;;;;;14.63;6.67;;;6.20;99.90;;;;;;5005941;28;20053;-37
2021/12/08 12:15:13;;;;;;;15.63;6.80;;;6.20;99.90;;;;;;5020421;28;20148;-38
2021/12/08 12:17:39;;;;;;;14.87;5.33;;;6.20;99.90;;;;;;5005444;28;20052;-37
2021/12/08 12:20:13;;;;;;;10.90;4.73;;;6.20;99.90;;;;;;5021916;28;20053;-37
2021/12/08 12:23:12;;;;;;;14.77;4.63;;;6.10;99.90;;;;;;5017472;28;20071;-37
2021/12/08 12:26:06;;;;;;;9.30;3.07;;;6.10;99.90;;;;;;5019061;28;20045;-37
2021/12/08 12:28:57;;;;;;;16.33;5.23;;;6.10;99.90;;;;;;5029384;28;20394;-38
2021/12/08 12:31:32;;;;;;;14.30;4.90;;;6.10;99.90;;;;;;5021091;28;20088;-38
2021/12/08 12:33:58;;;;;;;14.13;5.80;;;6.10;99.90;;;;;;5018986;28;20060;-38
2021/12/08 12:36:34;;;;;;;12.00;4.30;;;6.10;99.90;;;;;;5008743;28;20045;-38
2021/12/08 12:39:19;;;;;;;12.53;5.03;;;6.00;99.90;;;;;;4988107;28;20041;-37
2021/12/08 12:42:12;;;;;;;14.30;4.77;;;6.00;99.90;;;;;;5036101;28;20140;-37
2021/12/08 12:44:40;;;;;;;14.30;4.90;;;6.00;99.90;;;;;;4991625;28;20042;-37
2021/12/08 12:47:11;;;;;;;16.27;4.13;;;6.00;99.90;;;;;;4980299;28;20061;-37
2021/12/08 12:49:42;;;;;;;12.50;3.47;;;6.00;99.90;;;;;;4998645;28;20085;-36
2021/12/08 12:52:10;;;;;;;7.70;3.00;;;6.00;99.90;;;;;;4995754;28;20803;-37
2021/12/08 12:54:39;;;;;;;13.23;3.70;;;6.00;99.90;;;;;;4995032;28;20046;-37
2021/12/08 12:57:07;;;;;;;9.87;3.53;;;6.00;99.90;;;;;;4983096;28;20400;-37
2021/12/08 12:59:51;;;;;;;10.93;3.20;;;6.00;99.90;;;;;;4992696;28;20052;-37
2021/12/08 13:02:27;;;;;;;9.93;3.27;;;6.00;99.90;;;;;;4990310;28;20069;-37
2021/12/08 13:04:58;;;;;;;10.57;3.33;;;5.90;99.90;;;;;;4989042;28;20504;-37
2021/12/08 13:07:25;;;;;;;;;;;5.90;99.90;;;;;;4994685;28;20050;-37
2021/12/08 13:09:54;;;;;;;10.43;3.47;;;5.90;99.90;;;;;;4992520;28;19929;-35
2021/12/08 13:12:21;;;;;;;9.47;3.23;;;5.90;99.90;;;;;;4993563;28;20397;-37
2021/12/08 13:15:19;;;;;;;10.23;3.90;;;5.90;99.90;;;;;;4991368;28;20074;-37
2021/12/08 13:18:04;;;;;;;12.83;3.93;;;5.90;99.90;;;;;;4976965;28;20085;-37
2021/12/08 13:20:41;;;;;;;10.17;3.80;;;5.80;99.90;;;;;;4994817;28;20398;-38
2021/12/08 13:23:29;;;;;;;12.80;3.90;;;5.80;99.90;;;;;;5002889;28;20042;-36
2021/12/08 13:26:07;;;;;;;13.60;5.40;;;5.80;99.90;;;;;;4998286;28;20124;-36
2021/12/08 13:34:08;;;;;;;10.17;4.17;;;5.80;99.90;;;;;;4993577;28;20088;-37
2021/12/08 13:36:45;;;;;;;11.87;3.63;;;5.80;99.90;;;;;;4983167;28;20398;-37
2021/12/08 13:39:21;;;;;;;12.87;3.70;;;5.80;99.90;;;;;;4998797;28;20050;-37
2021/12/08 13:41:59;;;;;;;9.47;3.50;;;5.80;99.90;;;;;;4999719;28;20234;-38
2021/12/08 13:44:36;;;;;;;12.37;3.57;;;5.80;99.90;;;;;;5018372;28;20042;-36
2021/12/08 13:47:08;;;;;;;11.57;3.20;;;5.80;99.90;;;;;;5005743;28;20053;-37
2021/12/08 13:49:46;;;;;;;7.03;3.03;;;5.80;99.90;;;;;;4993347;28;20045;-37
2021/12/08 13:52:12;;;;;;;12.13;3.00;;;5.80;99.90;;;;;;4990465;28;20128;-36
2021/12/08 13:54:43;;;;;;;11.37;3.07;;;5.80;99.90;;;;;;4987676;28;20379;-35
2021/12/08 13:57:50;;;;;;;7.72;3.22;;;5.80;99.90;;;;;;4978840;28;20068;-36
2021/12/08 14:00:38;;;;;;;14.20;3.10;;;5.80;99.90;;;;;;4988480;28;20166;-35
2021/12/08 14:03:08;;;;;;;12.93;3.10;;;5.70;99.90;;;;;;4989672;28;20104;-36
2021/12/08 14:05:41;;;;;;;9.23;2.80;;;5.70;99.90;;;;;;4990114;28;20116;-36
2021/12/08 14:08:21;;;;;;;8.47;3.10;;;5.70;99.90;;;;;;4990059;28;20409;-35
2021/12/08 14:10:57;;;;;;;14.32;2.88;;;5.60;99.90;;;;;;5017023;28;20052;-38
2021/12/08 14:13:30;;;;;;;8.40;2.47;;;5.60;99.90;;;;;;5015377;28;20049;-36